sensor_id;sensor_type;location;lat;lon;timestamp;P1;durP1;ratioP1;P2;durP2;ratioP2
69841;SDS011;57138;51.326;-0.068;2022-09-13T00:00:40;14.07;;;2.47;;
69841;SDS011;57138;51.326;-0.068;2022-09-13T00:03:07;9.68;;;2.08;;
69841;SDS011;57138;51.326;-0.068;2022-09-13T00:05:34;6.55;;;2.65;;
69841;SDS011;57138;51.326;-0.068;2022-09-13T00:08:00;5.97;;;2.10;;
69841;SDS011;57138;51.326;-0.068;2022-09-13T00:10:26;7.85;;;2.63;;
69841;SDS011;57138;51.326;-0.068;2022-09-13T00:12:52;9.15;;;2.60;;
69841;SDS011;57138;51.326;-0.068;2022-09-13T00:15:18;6.65;;;2.67;;
69841;SDS011;57138;51.326;-0.068;2022-09-13T00:17:44;8.32;;;2.67;;
69841;SDS011;57138;51.326;-0.068;2022-09-13T00:20:10;11.07;;;2.13;;
69841;SDS011;57138;51.326;-0.068;2022-09-13T00:22:36;11.68;;;2.42;;
69841;SDS011;57138;51.326;-0.068;2022-09-13T00:25:02;4.78;;;1.95;;
69841;SDS011;57138;51.326;-0.068;2022-09-13T00:27:28;10.82;;;2.83;;
69841;SDS011;57138;51.326;-0.068;2022-09-13T00:29:54;9.52;;;2.75;;
69841;SDS011;57138;51.326;-0.068;2022-09-13T00:32:19;8.32;;;2.53;;
69841;SDS011;57138;51.326;-0.068;2022-09-13T00:34:45;7.90;;;2.40;;
69841;SDS011;57138;51.326;-0.068;2022-09-13T00:37:11;17.25;;;3.00;;
69841;SDS011;57138;51.326;-0.068;2022-09-13T00:39:37;9.30;;;2.28;;
69841;SDS011;57138;51.326;-0.068;2022-09-13T00:42:02;9.20;;;2.47;;
69841;SDS011;57138;51.326;-0.068;2022-09-13T00:50:06;4.53;;;1.83;;
69841;SDS011;57138;51.326;-0.068;2022-09-13T00:52:39;9.40;;;1.97;;
69841;SDS011;57138;51.326;-0.068;2022-09-13T00:55:28;8.45;;;2.00;;
69841;SDS011;57138;51.326;-0.068;2022-09-13T00:57:55;21.48;;;3.97;;
69841;SDS011;57138;51.326;-0.068;2022-09-13T01:00:26;7.90;;;2.20;;
69841;SDS011;57138;51.326;-0.068;2022-09-13T01:02:53;11.73;;;2.10;;
69841;SDS011;57138;51.326;-0.068;2022-09-13T01:05:24;8.30;;;2.65;;
69841;SDS011;57138;51.326;-0.068;2022-09-13T01:07:54;11.70;;;2.30;;
69841;SDS011;57138;51.326;-0.068;2022-09-13T01:10:20;22.35;;;3.22;;
69841;SDS011;57138;51.326;-0.068;2022-09-13T01:12:49;10.60;;;2.47;;
69841;SDS011;57138;51.326;-0.068;2022-09-13T01:15:20;10.90;;;2.63;;
69841;SDS011;57138;51.326;-0.068;2022-09-13T01:17:47;19.58;;;3.00;;
69841;SDS011;57138;51.326;-0.068;2022-09-13T01:20:13;14.00;;;2.58;;
69841;SDS011;57138;51.326;-0.068;2022-09-13T01:28:35;10.00;;;3.65;;
69841;SDS011;57138;51.326;-0.068;2022-09-13T01:31:32;9.10;;;3.17;;
69841;SDS011;57138;51.326;-0.068;2022-09-13T01:34:27;7.95;;;3.05;;
69841;SDS011;57138;51.326;-0.068;2022-09-13T01:48:54;13.40;;;4.15;;
69841;SDS011;57138;51.326;-0.068;2022-09-13T01:57:35;10.30;;;4.22;;
69841;SDS011;57138;51.326;-0.068;2022-09-13T02:00:11;7.93;;;3.40;;
69841;SDS011;57138;51.326;-0.068;2022-09-13T02:02:49;9.18;;;3.47;;
69841;SDS011;57138;51.326;-0.068;2022-09-13T02:05:23;8.15;;;3.78;;
69841;SDS011;57138;51.326;-0.068;2022-09-13T02:08:02;16.13;;;5.50;;
69841;SDS011;57138;51.326;-0.068;2022-09-13T02:10:33;16.15;;;3.97;;
69841;SDS011;57138;51.326;-0.068;2022-09-13T02:13:05;14.88;;;4.75;;
69841;SDS011;57138;51.326;-0.068;2022-09-13T02:15:38;13.23;;;4.10;;
69841;SDS011;57138;51.326;-0.068;2022-09-13T02:18:10;7.97;;;3.55;;
69841;SDS011;57138;51.326;-0.068;2022-09-13T02:20:40;7.68;;;3.70;;
69841;SDS011;57138;51.326;-0.068;2022-09-13T02:23:09;9.45;;;3.92;;
69841;SDS011;57138;51.326;-0.068;2022-09-13T02:25:38;9.85;;;4.38;;
69841;SDS011;57138;51.326;-0.068;2022-09-13T02:28:07;8.43;;;4.22;;
69841;SDS011;57138;51.326;-0.068;2022-09-13T02:30:37;9.45;;;3.60;;
69841;SDS011;57138;51.326;-0.068;2022-09-13T02:33:11;8.90;;;3.85;;
69841;SDS011;57138;51.326;-0.068;2022-09-13T02:35:48;8.18;;;3.45;;
69841;SDS011;57138;51.326;-0.068;2022-09-13T02:38:22;8.80;;;4.03;;
69841;SDS011;57138;51.326;-0.068;2022-09-13T02:41:12;10.55;;;3.95;;
69841;SDS011;57138;51.326;-0.068;2022-09-13T02:43:40;10.35;;;4.03;;
69841;SDS011;57138;51.326;-0.068;2022-09-13T02:48:55;11.20;;;4.25;;
69841;SDS011;57138;51.326;-0.068;2022-09-13T02:51:31;9.98;;;4.07;;
69841;SDS011;57138;51.326;-0.068;2022-09-13T02:54:31;8.70;;;5.15;;
69841;SDS011;57138;51.326;-0.068;2022-09-13T02:59:32;8.60;;;4.68;;
69841;SDS011;57138;51.326;-0.068;2022-09-13T03:02:08;11.77;;;4.95;;
69841;SDS011;57138;51.326;-0.068;2022-09-13T03:04:38;10.52;;;5.28;;
69841;SDS011;57138;51.326;-0.068;2022-09-13T03:07:05;9.05;;;5.30;;
69841;SDS011;57138;51.326;-0.068;2022-09-13T03:09:35;15.05;;;6.22;;
69841;SDS011;57138;51.326;-0.068;2022-09-13T03:23:31;17.77;;;6.43;;
69841;SDS011;57138;51.326;-0.068;2022-09-13T03:26:09;20.17;;;7.68;;
69841;SDS011;57138;51.326;-0.068;2022-09-13T03:29:09;12.40;;;8.55;;
69841;SDS011;57138;51.326;-0.068;2022-09-13T03:32:23;13.45;;;7.53;;
69841;SDS011;57138;51.326;-0.068;2022-09-13T03:37:53;14.52;;;7.15;;
69841;SDS011;57138;51.326;-0.068;2022-09-13T03:40:32;15.57;;;7.85;;
69841;SDS011;57138;51.326;-0.068;2022-09-13T03:45:49;14.38;;;7.85;;
69841;SDS011;57138;51.326;-0.068;2022-09-13T03:48:19;12.15;;;6.97;;
69841;SDS011;57138;51.326;-0.068;2022-09-13T03:50:46;17.00;;;8.50;;
69841;SDS011;57138;51.326;-0.068;2022-09-13T03:53:14;14.93;;;9.10;;
69841;SDS011;57138;51.326;-0.068;2022-09-13T03:55:45;11.02;;;8.30;;
69841;SDS011;57138;51.326;-0.068;2022-09-13T03:58:14;16.50;;;9.32;;
69841;SDS011;57138;51.326;-0.068;2022-09-13T04:00:41;15.75;;;8.35;;
69841;SDS011;57138;51.326;-0.068;2022-09-13T04:03:07;14.00;;;8.30;;
69841;SDS011;57138;51.326;-0.068;2022-09-13T04:05:33;13.77;;;8.52;;
69841;SDS011;57138;51.326;-0.068;2022-09-13T04:07:59;18.15;;;8.63;;
69841;SDS011;57138;51.326;-0.068;2022-09-13T04:10:26;14.48;;;8.50;;
69841;SDS011;57138;51.326;-0.068;2022-09-13T04:12:55;12.85;;;7.68;;
69841;SDS011;57138;51.326;-0.068;2022-09-13T04:15:21;13.85;;;9.30;;
69841;SDS011;57138;51.326;-0.068;2022-09-13T04:17:47;12.35;;;7.88;;
69841;SDS011;57138;51.326;-0.068;2022-09-13T04:20:12;12.10;;;7.57;;
69841;SDS011;57138;51.326;-0.068;2022-09-13T04:22:38;13.52;;;8.05;;
69841;SDS011;57138;51.326;-0.068;2022-09-13T04:25:04;12.00;;;8.90;;
69841;SDS011;57138;51.326;-0.068;2022-09-13T04:27:30;11.43;;;8.30;;
69841;SDS011;57138;51.326;-0.068;2022-09-13T04:29:56;13.65;;;9.50;;
69841;SDS011;57138;51.326;-0.068;2022-09-13T04:32:21;13.52;;;7.72;;
69841;SDS011;57138;51.326;-0.068;2022-09-13T04:34:47;10.00;;;8.07;;
69841;SDS011;57138;51.326;-0.068;2022-09-13T04:37:13;14.70;;;8.00;;
69841;SDS011;57138;51.326;-0.068;2022-09-13T04:39:38;10.98;;;8.10;;
69841;SDS011;57138;51.326;-0.068;2022-09-13T04:42:03;14.20;;;8.55;;
69841;SDS011;57138;51.326;-0.068;2022-09-13T04:44:31;10.32;;;7.40;;
69841;SDS011;57138;51.326;-0.068;2022-09-13T04:46:57;13.52;;;9.00;;
69841;SDS011;57138;51.326;-0.068;2022-09-13T04:49:24;11.52;;;7.93;;
69841;SDS011;57138;51.326;-0.068;2022-09-13T04:51:49;11.73;;;8.93;;
69841;SDS011;57138;51.326;-0.068;2022-09-13T04:54:15;10.57;;;8.82;;
69841;SDS011;57138;51.326;-0.068;2022-09-13T04:56:41;13.75;;;9.13;;
69841;SDS011;57138;51.326;-0.068;2022-09-13T04:59:09;13.98;;;9.43;;
69841;SDS011;57138;51.326;-0.068;2022-09-13T05:01:35;12.02;;;9.30;;
69841;SDS011;57138;51.326;-0.068;2022-09-13T05:04:01;13.35;;;9.40;;
69841;SDS011;57138;51.326;-0.068;2022-09-13T05:06:27;11.63;;;8.02;;
69841;SDS011;57138;51.326;-0.068;2022-09-13T05:08:54;13.27;;;9.07;;
69841;SDS011;57138;51.326;-0.068;2022-09-13T05:11:24;14.38;;;8.40;;
69841;SDS011;57138;51.326;-0.068;2022-09-13T05:13:51;13.13;;;9.82;;
69841;SDS011;57138;51.326;-0.068;2022-09-13T05:16:22;12.75;;;8.63;;
69841;SDS011;57138;51.326;-0.068;2022-09-13T05:18:50;10.82;;;8.43;;
69841;SDS011;57138;51.326;-0.068;2022-09-13T05:21:17;11.27;;;8.93;;
69841;SDS011;57138;51.326;-0.068;2022-09-13T05:23:44;13.43;;;8.90;;
69841;SDS011;57138;51.326;-0.068;2022-09-13T05:26:12;12.57;;;9.27;;
69841;SDS011;57138;51.326;-0.068;2022-09-13T05:28:38;14.05;;;9.82;;
69841;SDS011;57138;51.326;-0.068;2022-09-13T05:31:09;13.63;;;9.75;;
69841;SDS011;57138;51.326;-0.068;2022-09-13T05:33:40;13.65;;;9.07;;
69841;SDS011;57138;51.326;-0.068;2022-09-13T05:36:08;10.60;;;8.90;;
69841;SDS011;57138;51.326;-0.068;2022-09-13T05:38:34;11.73;;;8.80;;
69841;SDS011;57138;51.326;-0.068;2022-09-13T05:41:00;12.30;;;8.68;;
69841;SDS011;57138;51.326;-0.068;2022-09-13T05:43:28;10.15;;;7.25;;
69841;SDS011;57138;51.326;-0.068;2022-09-13T05:45:59;11.52;;;8.80;;
69841;SDS011;57138;51.326;-0.068;2022-09-13T05:48:32;13.98;;;8.38;;
69841;SDS011;57138;51.326;-0.068;2022-09-13T05:53:30;11.25;;;8.52;;
69841;SDS011;57138;51.326;-0.068;2022-09-13T05:55:56;16.23;;;8.70;;
69841;SDS011;57138;51.326;-0.068;2022-09-13T05:58:22;13.05;;;8.60;;
69841;SDS011;57138;51.326;-0.068;2022-09-13T06:00:54;12.57;;;9.13;;
69841;SDS011;57138;51.326;-0.068;2022-09-13T06:03:23;12.55;;;8.65;;
69841;SDS011;57138;51.326;-0.068;2022-09-13T06:05:53;11.20;;;8.27;;
69841;SDS011;57138;51.326;-0.068;2022-09-13T06:08:19;11.88;;;8.50;;
69841;SDS011;57138;51.326;-0.068;2022-09-13T06:10:52;11.65;;;8.38;;
69841;SDS011;57138;51.326;-0.068;2022-09-13T06:13:21;10.30;;;7.20;;
69841;SDS011;57138;51.326;-0.068;2022-09-13T06:15:47;11.27;;;8.52;;
69841;SDS011;57138;51.326;-0.068;2022-09-13T06:18:13;13.63;;;8.20;;
69841;SDS011;57138;51.326;-0.068;2022-09-13T06:20:38;13.38;;;8.60;;
69841;SDS011;57138;51.326;-0.068;2022-09-13T06:23:04;10.38;;;7.63;;
69841;SDS011;57138;51.326;-0.068;2022-09-13T06:25:29;13.20;;;7.85;;
69841;SDS011;57138;51.326;-0.068;2022-09-13T06:27:55;13.00;;;8.25;;
69841;SDS011;57138;51.326;-0.068;2022-09-13T06:30:20;14.50;;;9.43;;
69841;SDS011;57138;51.326;-0.068;2022-09-13T06:32:46;12.95;;;8.48;;
69841;SDS011;57138;51.326;-0.068;2022-09-13T06:35:12;10.10;;;8.43;;
69841;SDS011;57138;51.326;-0.068;2022-09-13T06:37:37;12.02;;;8.13;;
69841;SDS011;57138;51.326;-0.068;2022-09-13T06:40:03;12.20;;;8.85;;
69841;SDS011;57138;51.326;-0.068;2022-09-13T06:42:32;12.85;;;9.40;;
69841;SDS011;57138;51.326;-0.068;2022-09-13T06:44:59;12.45;;;8.75;;
69841;SDS011;57138;51.326;-0.068;2022-09-13T06:47:24;14.27;;;9.10;;
69841;SDS011;57138;51.326;-0.068;2022-09-13T06:49:49;16.35;;;9.85;;
69841;SDS011;57138;51.326;-0.068;2022-09-13T06:52:15;14.15;;;9.65;;
69841;SDS011;57138;51.326;-0.068;2022-09-13T06:54:40;14.20;;;10.10;;
69841;SDS011;57138;51.326;-0.068;2022-09-13T06:57:06;15.73;;;11.48;;
69841;SDS011;57138;51.326;-0.068;2022-09-13T06:59:31;14.80;;;10.48;;
69841;SDS011;57138;51.326;-0.068;2022-09-13T07:01:59;16.45;;;11.25;;
69841;SDS011;57138;51.326;-0.068;2022-09-13T07:04:24;15.18;;;10.95;;
69841;SDS011;57138;51.326;-0.068;2022-09-13T07:06:50;15.18;;;10.90;;
69841;SDS011;57138;51.326;-0.068;2022-09-13T07:09:17;17.20;;;11.07;;
69841;SDS011;57138;51.326;-0.068;2022-09-13T07:11:45;16.65;;;10.35;;
69841;SDS011;57138;51.326;-0.068;2022-09-13T07:14:12;14.65;;;10.40;;
69841;SDS011;57138;51.326;-0.068;2022-09-13T07:16:39;21.63;;;12.13;;
69841;SDS011;57138;51.326;-0.068;2022-09-13T07:19:06;21.52;;;11.95;;
69841;SDS011;57138;51.326;-0.068;2022-09-13T07:21:36;17.80;;;12.43;;
69841;SDS011;57138;51.326;-0.068;2022-09-13T07:24:02;16.00;;;11.40;;
69841;SDS011;57138;51.326;-0.068;2022-09-13T07:26:28;17.42;;;11.77;;
69841;SDS011;57138;51.326;-0.068;2022-09-13T07:28:56;15.13;;;10.50;;
69841;SDS011;57138;51.326;-0.068;2022-09-13T07:31:25;14.00;;;9.85;;
69841;SDS011;57138;51.326;-0.068;2022-09-13T07:33:56;13.45;;;10.30;;
69841;SDS011;57138;51.326;-0.068;2022-09-13T07:36:24;18.67;;;10.40;;
69841;SDS011;57138;51.326;-0.068;2022-09-13T07:38:50;18.65;;;10.77;;
69841;SDS011;57138;51.326;-0.068;2022-09-13T07:41:17;12.38;;;8.85;;
69841;SDS011;57138;51.326;-0.068;2022-09-13T07:43:45;17.98;;;10.00;;
69841;SDS011;57138;51.326;-0.068;2022-09-13T07:46:18;14.98;;;10.65;;
69841;SDS011;57138;51.326;-0.068;2022-09-13T07:48:45;14.15;;;9.13;;
69841;SDS011;57138;51.326;-0.068;2022-09-13T07:51:13;16.35;;;9.85;;
69841;SDS011;57138;51.326;-0.068;2022-09-13T07:53:40;16.45;;;9.10;;
69841;SDS011;57138;51.326;-0.068;2022-09-13T07:58:34;15.52;;;7.15;;
69841;SDS011;57138;51.326;-0.068;2022-09-13T08:03:39;10.07;;;6.20;;
69841;SDS011;57138;51.326;-0.068;2022-09-13T08:06:05;11.48;;;5.50;;
69841;SDS011;57138;51.326;-0.068;2022-09-13T08:08:31;10.23;;;5.88;;
69841;SDS011;57138;51.326;-0.068;2022-09-13T08:10:58;9.18;;;5.38;;
69841;SDS011;57138;51.326;-0.068;2022-09-13T08:13:25;9.38;;;5.20;;
69841;SDS011;57138;51.326;-0.068;2022-09-13T08:15:51;10.57;;;4.68;;
69841;SDS011;57138;51.326;-0.068;2022-09-13T08:18:17;11.63;;;5.32;;
69841;SDS011;57138;51.326;-0.068;2022-09-13T08:20:43;11.20;;;4.38;;
69841;SDS011;57138;51.326;-0.068;2022-09-13T08:23:09;8.85;;;4.72;;
69841;SDS011;57138;51.326;-0.068;2022-09-13T08:25:36;9.95;;;4.53;;
69841;SDS011;57138;51.326;-0.068;2022-09-13T08:28:09;7.03;;;3.90;;
69841;SDS011;57138;51.326;-0.068;2022-09-13T08:30:39;9.13;;;3.80;;
69841;SDS011;57138;51.326;-0.068;2022-09-13T08:33:06;8.82;;;4.13;;
69841;SDS011;57138;51.326;-0.068;2022-09-13T08:35:32;8.02;;;3.90;;
69841;SDS011;57138;51.326;-0.068;2022-09-13T08:37:58;8.00;;;3.80;;
69841;SDS011;57138;51.326;-0.068;2022-09-13T08:40:25;8.98;;;4.05;;
69841;SDS011;57138;51.326;-0.068;2022-09-13T08:43:02;8.63;;;4.90;;
69841;SDS011;57138;51.326;-0.068;2022-09-13T08:45:29;9.85;;;5.22;;
69841;SDS011;57138;51.326;-0.068;2022-09-13T08:50:27;9.05;;;4.60;;
69841;SDS011;57138;51.326;-0.068;2022-09-13T09:00:42;18.13;;;5.88;;
69841;SDS011;57138;51.326;-0.068;2022-09-13T09:03:16;12.80;;;6.38;;
69841;SDS011;57138;51.326;-0.068;2022-09-13T09:06:00;10.75;;;5.68;;
69841;SDS011;57138;51.326;-0.068;2022-09-13T09:08:37;9.73;;;4.97;;
69841;SDS011;57138;51.326;-0.068;2022-09-13T09:11:18;11.05;;;5.20;;
69841;SDS011;57138;51.326;-0.068;2022-09-13T09:13:53;12.27;;;5.82;;
69841;SDS011;57138;51.326;-0.068;2022-09-13T09:16:45;10.32;;;5.72;;
69841;SDS011;57138;51.326;-0.068;2022-09-13T09:19:17;10.95;;;6.50;;
69841;SDS011;57138;51.326;-0.068;2022-09-13T09:21:58;11.15;;;6.35;;
69841;SDS011;57138;51.326;-0.068;2022-09-13T09:24:28;13.35;;;7.28;;
69841;SDS011;57138;51.326;-0.068;2022-09-13T09:27:00;18.45;;;6.65;;
69841;SDS011;57138;51.326;-0.068;2022-09-13T09:29:34;15.85;;;8.32;;
69841;SDS011;57138;51.326;-0.068;2022-09-13T09:32:18;12.65;;;8.32;;
69841;SDS011;57138;51.326;-0.068;2022-09-13T09:40:43;19.83;;;11.10;;
69841;SDS011;57138;51.326;-0.068;2022-09-13T09:43:45;21.75;;;11.90;;
69841;SDS011;57138;51.326;-0.068;2022-09-13T09:46:08;22.67;;;11.65;;
69841;SDS011;57138;51.326;-0.068;2022-09-13T09:48:39;24.05;;;12.93;;
69841;SDS011;57138;51.326;-0.068;2022-09-13T09:51:10;21.63;;;12.43;;
69841;SDS011;57138;51.326;-0.068;2022-09-13T09:53:40;25.27;;;13.18;;
69841;SDS011;57138;51.326;-0.068;2022-09-13T09:56:23;24.15;;;13.07;;
69841;SDS011;57138;51.326;-0.068;2022-09-13T09:58:50;22.00;;;13.10;;
69841;SDS011;57138;51.326;-0.068;2022-09-13T10:01:22;26.48;;;13.40;;
69841;SDS011;57138;51.326;-0.068;2022-09-13T10:03:51;21.35;;;12.05;;
69841;SDS011;57138;51.326;-0.068;2022-09-13T10:06:29;20.90;;;12.20;;
69841;SDS011;57138;51.326;-0.068;2022-09-13T10:09:05;25.05;;;14.00;;
69841;SDS011;57138;51.326;-0.068;2022-09-13T10:11:52;25.02;;;12.77;;
69841;SDS011;57138;51.326;-0.068;2022-09-13T10:19:30;22.48;;;13.18;;
69841;SDS011;57138;51.326;-0.068;2022-09-13T10:22:03;28.33;;;14.63;;
69841;SDS011;57138;51.326;-0.068;2022-09-13T10:24:30;23.08;;;13.05;;
69841;SDS011;57138;51.326;-0.068;2022-09-13T10:26:56;21.17;;;13.43;;
69841;SDS011;57138;51.326;-0.068;2022-09-13T10:29:23;26.77;;;14.20;;
69841;SDS011;57138;51.326;-0.068;2022-09-13T10:31:51;23.48;;;13.15;;
69841;SDS011;57138;51.326;-0.068;2022-09-13T10:34:28;22.75;;;12.30;;
69841;SDS011;57138;51.326;-0.068;2022-09-13T10:37:02;21.70;;;12.75;;
69841;SDS011;57138;51.326;-0.068;2022-09-13T10:39:51;24.23;;;13.70;;
69841;SDS011;57138;51.326;-0.068;2022-09-13T10:42:19;21.92;;;13.32;;
69841;SDS011;57138;51.326;-0.068;2022-09-13T10:44:52;27.70;;;14.15;;
69841;SDS011;57138;51.326;-0.068;2022-09-13T10:47:21;20.77;;;12.95;;
69841;SDS011;57138;51.326;-0.068;2022-09-13T10:49:54;27.77;;;14.10;;
69841;SDS011;57138;51.326;-0.068;2022-09-13T10:54:55;25.83;;;13.75;;
69841;SDS011;57138;51.326;-0.068;2022-09-13T10:57:39;21.85;;;12.45;;
69841;SDS011;57138;51.326;-0.068;2022-09-13T11:00:06;20.90;;;13.48;;
69841;SDS011;57138;51.326;-0.068;2022-09-13T11:05:48;24.55;;;13.00;;
69841;SDS011;57138;51.326;-0.068;2022-09-13T11:27:59;23.65;;;14.07;;
69841;SDS011;57138;51.326;-0.068;2022-09-13T11:30:39;28.17;;;16.48;;
69841;SDS011;57138;51.326;-0.068;2022-09-13T11:42:04;20.25;;;13.70;;
69841;SDS011;57138;51.326;-0.068;2022-09-13T11:47:22;21.60;;;13.30;;
69841;SDS011;57138;51.326;-0.068;2022-09-13T11:55:43;21.77;;;15.35;;
69841;SDS011;57138;51.326;-0.068;2022-09-13T11:58:19;24.10;;;14.88;;
69841;SDS011;57138;51.326;-0.068;2022-09-13T12:00:54;30.17;;;15.40;;
69841;SDS011;57138;51.326;-0.068;2022-09-13T12:12:09;18.90;;;14.02;;
69841;SDS011;57138;51.326;-0.068;2022-09-13T12:14:44;24.23;;;15.68;;
69841;SDS011;57138;51.326;-0.068;2022-09-13T12:17:21;19.55;;;14.65;;
69841;SDS011;57138;51.326;-0.068;2022-09-13T12:19:54;20.40;;;15.32;;
69841;SDS011;57138;51.326;-0.068;2022-09-13T12:22:25;20.27;;;14.02;;
69841;SDS011;57138;51.326;-0.068;2022-09-13T12:24:55;21.85;;;14.77;;
69841;SDS011;57138;51.326;-0.068;2022-09-13T12:30:16;19.92;;;14.27;;
69841;SDS011;57138;51.326;-0.068;2022-09-13T12:32:45;20.83;;;15.13;;
69841;SDS011;57138;51.326;-0.068;2022-09-13T12:52:02;17.70;;;12.98;;
69841;SDS011;57138;51.326;-0.068;2022-09-13T12:54:35;20.80;;;13.23;;
69841;SDS011;57138;51.326;-0.068;2022-09-13T12:57:12;16.40;;;12.82;;
69841;SDS011;57138;51.326;-0.068;2022-09-13T12:59:54;16.90;;;13.00;;
69841;SDS011;57138;51.326;-0.068;2022-09-13T13:02:29;20.98;;;14.10;;
69841;SDS011;57138;51.326;-0.068;2022-09-13T13:07:56;24.25;;;13.82;;
69841;SDS011;57138;51.326;-0.068;2022-09-13T13:10:33;20.35;;;14.55;;
69841;SDS011;57138;51.326;-0.068;2022-09-13T13:13:11;19.40;;;14.48;;
69841;SDS011;57138;51.326;-0.068;2022-09-13T13:31:42;19.35;;;13.63;;
69841;SDS011;57138;51.326;-0.068;2022-09-13T13:39:12;15.50;;;12.70;;
69841;SDS011;57138;51.326;-0.068;2022-09-13T13:42:44;18.77;;;13.15;;
69841;SDS011;57138;51.326;-0.068;2022-09-13T13:55:45;15.93;;;12.67;;
69841;SDS011;57138;51.326;-0.068;2022-09-13T13:58:42;17.38;;;13.23;;
69841;SDS011;57138;51.326;-0.068;2022-09-13T14:01:16;19.13;;;13.27;;
69841;SDS011;57138;51.326;-0.068;2022-09-13T14:06:43;17.58;;;11.95;;
69841;SDS011;57138;51.326;-0.068;2022-09-13T14:19:51;15.98;;;10.35;;
69841;SDS011;57138;51.326;-0.068;2022-09-13T14:22:24;17.52;;;10.15;;
69841;SDS011;57138;51.326;-0.068;2022-09-13T14:24:51;14.85;;;8.82;;
69841;SDS011;57138;51.326;-0.068;2022-09-13T14:27:20;13.80;;;9.60;;
69841;SDS011;57138;51.326;-0.068;2022-09-13T14:29:57;14.27;;;8.48;;
69841;SDS011;57138;51.326;-0.068;2022-09-13T14:32:27;12.38;;;7.70;;
69841;SDS011;57138;51.326;-0.068;2022-09-13T14:34:59;12.00;;;7.68;;
69841;SDS011;57138;51.326;-0.068;2022-09-13T14:37:38;20.17;;;7.70;;
69841;SDS011;57138;51.326;-0.068;2022-09-13T14:42:36;17.27;;;6.95;;
69841;SDS011;57138;51.326;-0.068;2022-09-13T14:45:11;12.55;;;6.65;;
69841;SDS011;57138;51.326;-0.068;2022-09-13T14:50:30;9.52;;;6.18;;
69841;SDS011;57138;51.326;-0.068;2022-09-13T14:53:04;11.73;;;6.07;;
69841;SDS011;57138;51.326;-0.068;2022-09-13T14:55:36;17.42;;;7.22;;
69841;SDS011;57138;51.326;-0.068;2022-09-13T14:58:11;11.65;;;6.35;;
69841;SDS011;57138;51.326;-0.068;2022-09-13T15:01:18;12.10;;;6.55;;
69841;SDS011;57138;51.326;-0.068;2022-09-13T15:03:44;10.55;;;6.47;;
69841;SDS011;57138;51.326;-0.068;2022-09-13T15:06:45;9.10;;;5.18;;
69841;SDS011;57138;51.326;-0.068;2022-09-13T15:11:53;7.60;;;3.28;;
69841;SDS011;57138;51.326;-0.068;2022-09-13T15:19:38;8.55;;;3.33;;
69841;SDS011;57138;51.326;-0.068;2022-09-13T15:22:04;6.93;;;2.28;;
69841;SDS011;57138;51.326;-0.068;2022-09-13T15:24:50;10.60;;;2.38;;
69841;SDS011;57138;51.326;-0.068;2022-09-13T15:27:25;5.82;;;2.15;;
69841;SDS011;57138;51.326;-0.068;2022-09-13T15:29:57;5.57;;;2.20;;
69841;SDS011;57138;51.326;-0.068;2022-09-13T15:32:29;6.70;;;2.58;;
69841;SDS011;57138;51.326;-0.068;2022-09-13T15:35:00;6.95;;;2.35;;
69841;SDS011;57138;51.326;-0.068;2022-09-13T15:37:33;6.75;;;2.55;;
69841;SDS011;57138;51.326;-0.068;2022-09-13T15:40:19;12.75;;;2.13;;
69841;SDS011;57138;51.326;-0.068;2022-09-13T15:42:46;6.03;;;1.80;;
69841;SDS011;57138;51.326;-0.068;2022-09-13T15:45:17;7.95;;;1.65;;
69841;SDS011;57138;51.326;-0.068;2022-09-13T15:47:45;5.07;;;1.90;;
69841;SDS011;57138;51.326;-0.068;2022-09-13T15:50:18;6.78;;;1.55;;
69841;SDS011;57138;51.326;-0.068;2022-09-13T15:52:46;9.23;;;1.70;;
69841;SDS011;57138;51.326;-0.068;2022-09-13T15:55:11;13.38;;;3.75;;
69841;SDS011;57138;51.326;-0.068;2022-09-13T15:57:37;7.55;;;1.85;;
69841;SDS011;57138;51.326;-0.068;2022-09-13T16:00:02;7.35;;;1.58;;
69841;SDS011;57138;51.326;-0.068;2022-09-13T16:02:32;8.65;;;1.70;;
69841;SDS011;57138;51.326;-0.068;2022-09-13T16:04:58;8.60;;;1.70;;
69841;SDS011;57138;51.326;-0.068;2022-09-13T16:07:24;5.55;;;1.35;;
69841;SDS011;57138;51.326;-0.068;2022-09-13T16:09:50;9.85;;;1.70;;
69841;SDS011;57138;51.326;-0.068;2022-09-13T16:12:17;8.32;;;2.80;;
69841;SDS011;57138;51.326;-0.068;2022-09-13T16:14:43;4.50;;;1.10;;
69841;SDS011;57138;51.326;-0.068;2022-09-13T16:17:14;8.23;;;1.75;;
69841;SDS011;57138;51.326;-0.068;2022-09-13T16:19:44;16.70;;;4.00;;
69841;SDS011;57138;51.326;-0.068;2022-09-13T16:22:10;10.45;;;1.77;;
69841;SDS011;57138;51.326;-0.068;2022-09-13T16:24:35;11.48;;;2.42;;
69841;SDS011;57138;51.326;-0.068;2022-09-13T16:27:02;7.97;;;2.30;;
69841;SDS011;57138;51.326;-0.068;2022-09-13T16:29:28;10.50;;;2.00;;
69841;SDS011;57138;51.326;-0.068;2022-09-13T16:31:54;7.43;;;1.90;;
69841;SDS011;57138;51.326;-0.068;2022-09-13T16:34:21;7.82;;;2.40;;
69841;SDS011;57138;51.326;-0.068;2022-09-13T16:36:47;8.27;;;1.73;;
69841;SDS011;57138;51.326;-0.068;2022-09-13T16:39:12;4.80;;;2.13;;
69841;SDS011;57138;51.326;-0.068;2022-09-13T16:41:38;8.43;;;2.38;;
69841;SDS011;57138;51.326;-0.068;2022-09-13T16:44:04;10.02;;;2.17;;
69841;SDS011;57138;51.326;-0.068;2022-09-13T16:46:30;9.27;;;2.10;;
69841;SDS011;57138;51.326;-0.068;2022-09-13T16:48:56;9.50;;;2.65;;
69841;SDS011;57138;51.326;-0.068;2022-09-13T16:51:22;9.02;;;2.20;;
69841;SDS011;57138;51.326;-0.068;2022-09-13T16:53:49;9.90;;;3.10;;
69841;SDS011;57138;51.326;-0.068;2022-09-13T16:56:16;12.93;;;2.45;;
69841;SDS011;57138;51.326;-0.068;2022-09-13T16:58:43;9.65;;;3.33;;
69841;SDS011;57138;51.326;-0.068;2022-09-13T17:01:15;7.30;;;2.50;;
69841;SDS011;57138;51.326;-0.068;2022-09-13T17:03:42;8.55;;;2.60;;
69841;SDS011;57138;51.326;-0.068;2022-09-13T17:06:09;10.05;;;2.78;;
69841;SDS011;57138;51.326;-0.068;2022-09-13T17:08:36;11.88;;;3.30;;
69841;SDS011;57138;51.326;-0.068;2022-09-13T17:11:05;9.20;;;2.38;;
69841;SDS011;57138;51.326;-0.068;2022-09-13T17:13:32;9.50;;;2.58;;
69841;SDS011;57138;51.326;-0.068;2022-09-13T17:15:57;8.82;;;2.60;;
69841;SDS011;57138;51.326;-0.068;2022-09-13T17:18:23;10.10;;;3.42;;
69841;SDS011;57138;51.326;-0.068;2022-09-13T17:20:49;13.90;;;3.95;;
69841;SDS011;57138;51.326;-0.068;2022-09-13T17:23:15;10.45;;;2.67;;
69841;SDS011;57138;51.326;-0.068;2022-09-13T17:25:45;7.95;;;2.90;;
69841;SDS011;57138;51.326;-0.068;2022-09-13T17:28:12;7.53;;;2.72;;
69841;SDS011;57138;51.326;-0.068;2022-09-13T17:30:38;9.45;;;3.00;;
69841;SDS011;57138;51.326;-0.068;2022-09-13T17:33:05;8.95;;;2.40;;
69841;SDS011;57138;51.326;-0.068;2022-09-13T17:35:31;8.57;;;3.10;;
69841;SDS011;57138;51.326;-0.068;2022-09-13T17:37:57;11.73;;;3.08;;
69841;SDS011;57138;51.326;-0.068;2022-09-13T17:40:24;13.07;;;2.72;;
69841;SDS011;57138;51.326;-0.068;2022-09-13T17:42:50;18.52;;;3.00;;
69841;SDS011;57138;51.326;-0.068;2022-09-13T17:45:15;4.22;;;2.33;;
69841;SDS011;57138;51.326;-0.068;2022-09-13T17:47:41;8.88;;;2.80;;
69841;SDS011;57138;51.326;-0.068;2022-09-13T17:50:06;13.15;;;3.35;;
69841;SDS011;57138;51.326;-0.068;2022-09-13T17:52:32;8.13;;;2.92;;
69841;SDS011;57138;51.326;-0.068;2022-09-13T17:54:58;16.50;;;3.15;;
69841;SDS011;57138;51.326;-0.068;2022-09-13T17:57:23;7.78;;;3.28;;
69841;SDS011;57138;51.326;-0.068;2022-09-13T17:59:49;11.57;;;2.92;;
69841;SDS011;57138;51.326;-0.068;2022-09-13T18:02:16;12.15;;;3.47;;
69841;SDS011;57138;51.326;-0.068;2022-09-13T18:04:41;10.25;;;3.38;;
69841;SDS011;57138;51.326;-0.068;2022-09-13T18:07:07;12.05;;;3.35;;
69841;SDS011;57138;51.326;-0.068;2022-09-13T18:09:32;10.55;;;3.70;;
69841;SDS011;57138;51.326;-0.068;2022-09-13T18:11:58;9.43;;;4.32;;
69841;SDS011;57138;51.326;-0.068;2022-09-13T18:14:24;8.70;;;3.53;;